sensor_id;sensor_type;location;lat;lon;timestamp;pressure;altitude;pressure_sealevel;temperature;humidity
75513;BME280;64090;49.770;18.760;2023-06-10T00:02:37;97348.80;;;15.34;91.95
75513;BME280;64090;49.770;18.760;2023-06-10T00:05:48;97351.02;;;15.35;92.05
75513;BME280;64090;49.770;18.760;2023-06-10T00:08:52;97350.23;;;15.36;91.71
75513;BME280;64090;49.770;18.760;2023-06-10T00:11:55;97354.41;;;15.36;91.85
75513;BME280;64090;49.770;18.760;2023-06-10T00:14:57;97353.48;;;15.34;91.87
75513;BME280;64090;49.770;18.760;2023-06-10T00:18:01;97352.38;;;15.33;91.90
75513;BME280;64090;49.770;18.760;2023-06-10T00:21:05;97350.73;;;15.33;91.92
75513;BME280;64090;49.770;18.760;2023-06-10T00:24:09;97351.19;;;15.31;92.26
75513;BME280;64090;49.770;18.760;2023-06-10T00:27:38;97347.64;;;15.27;93.36
75513;BME280;64090;49.770;18.760;2023-06-10T00:30:41;97349.14;;;15.24;93.00
75513;BME280;64090;49.770;18.760;2023-06-10T00:33:46;97352.14;;;15.21;93.50
75513;BME280;64090;49.770;18.760;2023-06-10T00:36:49;97354.12;;;15.17;93.76
75513;BME280;64090;49.770;18.760;2023-06-10T00:40:03;97358.59;;;15.15;93.64
75513;BME280;64090;49.770;18.760;2023-06-10T00:43:08;97357.80;;;15.13;93.71
75513;BME280;64090;49.770;18.760;2023-06-10T00:46:11;97359.30;;;15.13;93.91
75513;BME280;64090;49.770;18.760;2023-06-10T00:49:30;97362.48;;;15.12;94.32
75513;BME280;64090;49.770;18.760;2023-06-10T00:52:33;97366.25;;;15.08;94.55
75513;BME280;64090;49.770;18.760;2023-06-10T00:55:38;97367.10;;;15.05;94.53
75513;BME280;64090;49.770;18.760;2023-06-10T00:58:54;97368.45;;;15.02;94.62
75513;BME280;64090;49.770;18.760;2023-06-10T01:01:57;97368.35;;;15.00;95.08
75513;BME280;64090;49.770;18.760;2023-06-10T01:05:00;97367.27;;;14.99;94.89
75513;BME280;64090;49.770;18.760;2023-06-10T01:08:24;97364.45;;;14.97;95.18
75513;BME280;64090;49.770;18.760;2023-06-10T01:11:37;97365.16;;;14.95;95.62
75513;BME280;64090;49.770;18.760;2023-06-10T01:14:45;97368.75;;;14.91;95.59
75513;BME280;64090;49.770;18.760;2023-06-10T01:18:08;97368.04;;;14.90;95.35
75513;BME280;64090;49.770;18.760;2023-06-10T01:21:22;97360.55;;;14.90;95.56
75513;BME280;64090;49.770;18.760;2023-06-10T01:24:34;97365.93;;;14.89;95.47
75513;BME280;64090;49.770;18.760;2023-06-10T01:27:41;97366.25;;;14.89;95.90
75513;BME280;64090;49.770;18.760;2023-06-10T01:31:16;97368.50;;;14.86;96.21
75513;BME280;64090;49.770;18.760;2023-06-10T01:34:24;97369.31;;;14.84;95.90
75513;BME280;64090;49.770;18.760;2023-06-10T01:37:30;97365.44;;;14.85;95.68
75513;BME280;64090;49.770;18.760;2023-06-10T01:40:37;97370.90;;;14.86;95.70
75513;BME280;64090;49.770;18.760;2023-06-10T01:43:45;97375.03;;;14.89;95.96
75513;BME280;64090;49.770;18.760;2023-06-10T01:46:50;97375.20;;;14.87;96.11
75513;BME280;64090;49.770;18.760;2023-06-10T01:49:54;97375.68;;;14.86;96.09
75513;BME280;64090;49.770;18.760;2023-06-10T01:52:59;97373.42;;;14.87;95.97
75513;BME280;64090;49.770;18.760;2023-06-10T01:56:03;97379.11;;;14.87;96.18
75513;BME280;64090;49.770;18.760;2023-06-10T01:59:06;97382.75;;;14.86;96.07
75513;BME280;64090;49.770;18.760;2023-06-10T02:02:09;97384.84;;;14.87;95.98
75513;BME280;64090;49.770;18.760;2023-06-10T02:05:12;97384.86;;;14.88;96.02
75513;BME280;64090;49.770;18.760;2023-06-10T02:08:15;97382.67;;;14.88;95.87
75513;BME280;64090;49.770;18.760;2023-06-10T02:11:18;97383.17;;;14.89;95.79
75513;BME280;64090;49.770;18.760;2023-06-10T02:14:21;97384.44;;;14.92;95.57
75513;BME280;64090;49.770;18.760;2023-06-10T02:17:24;97383.34;;;14.93;95.64
75513;BME280;64090;49.770;18.760;2023-06-10T02:20:28;97384.02;;;14.93;95.49
75513;BME280;64090;49.770;18.760;2023-06-10T02:23:31;97386.69;;;14.94;95.60
75513;BME280;64090;49.770;18.760;2023-06-10T02:26:44;97391.80;;;14.93;95.62
75513;BME280;64090;49.770;18.760;2023-06-10T02:29:48;97391.02;;;14.94;95.36
75513;BME280;64090;49.770;18.760;2023-06-10T02:32:52;97387.52;;;14.96;95.44
75513;BME280;64090;49.770;18.760;2023-06-10T02:35:56;97385.77;;;14.97;95.45
75513;BME280;64090;49.770;18.760;2023-06-10T02:38:59;97388.63;;;14.99;95.54
75513;BME280;64090;49.770;18.760;2023-06-10T02:42:02;97384.14;;;14.99;95.78
75513;BME280;64090;49.770;18.760;2023-06-10T02:45:06;97386.60;;;15.00;95.87
75513;BME280;64090;49.770;18.760;2023-06-10T02:48:12;97387.59;;;15.00;95.90
75513;BME280;64090;49.770;18.760;2023-06-10T02:51:15;97384.85;;;15.01;95.93
75513;BME280;64090;49.770;18.760;2023-06-10T02:54:18;97383.84;;;15.01;95.93
75513;BME280;64090;49.770;18.760;2023-06-10T02:57:29;97385.96;;;15.02;95.72
75513;BME280;64090;49.770;18.760;2023-06-10T03:00:32;97390.54;;;15.04;95.58
75513;BME280;64090;49.770;18.760;2023-06-10T03:03:35;97391.23;;;15.08;95.80
75513;BME280;64090;49.770;18.760;2023-06-10T03:06:43;97388.55;;;15.07;95.75
75513;BME280;64090;49.770;18.760;2023-06-10T03:09:48;97389.13;;;15.09;95.69
75513;BME280;64090;49.770;18.760;2023-06-10T03:12:51;97391.95;;;15.12;95.55
75513;BME280;64090;49.770;18.760;2023-06-10T03:15:54;97393.30;;;15.16;95.67
75513;BME280;64090;49.770;18.760;2023-06-10T03:18:57;97400.37;;;15.16;95.69
75513;BME280;64090;49.770;18.760;2023-06-10T03:22:10;97399.73;;;15.19;95.80
75513;BME280;64090;49.770;18.760;2023-06-10T03:25:14;97399.67;;;15.19;95.84
75513;BME280;64090;49.770;18.760;2023-06-10T03:28:18;97404.04;;;15.21;95.88
75513;BME280;64090;49.770;18.760;2023-06-10T03:31:23;97401.92;;;15.23;95.80
75513;BME280;64090;49.770;18.760;2023-06-10T03:34:29;97403.15;;;15.26;95.64
75513;BME280;64090;49.770;18.760;2023-06-10T03:37:32;97401.98;;;15.29;95.71
75513;BME280;64090;49.770;18.760;2023-06-10T03:40:35;97405.51;;;15.32;95.61
75513;BME280;64090;49.770;18.760;2023-06-10T03:43:40;97407.58;;;15.35;95.64
75513;BME280;64090;49.770;18.760;2023-06-10T03:46:59;97406.10;;;15.35;95.44
75513;BME280;64090;49.770;18.760;2023-06-10T03:50:06;97409.77;;;15.38;95.39
75513;BME280;64090;49.770;18.760;2023-06-10T03:53:09;97412.16;;;15.40;95.26
75513;BME280;64090;49.770;18.760;2023-06-10T03:56:12;97408.15;;;15.44;95.05
75513;BME280;64090;49.770;18.760;2023-06-10T03:59:16;97415.10;;;15.46;95.00
75513;BME280;64090;49.770;18.760;2023-06-10T04:02:21;97412.73;;;15.49;94.78
75513;BME280;64090;49.770;18.760;2023-06-10T04:05:25;97414.67;;;15.53;94.76
75513;BME280;64090;49.770;18.760;2023-06-10T04:08:28;97413.80;;;15.59;94.71
75513;BME280;64090;49.770;18.760;2023-06-10T04:11:31;97412.73;;;15.64;94.67
75513;BME280;64090;49.770;18.760;2023-06-10T04:14:37;97414.58;;;15.71;94.41
75513;BME280;64090;49.770;18.760;2023-06-10T04:17:40;97410.95;;;15.79;94.24
75513;BME280;64090;49.770;18.760;2023-06-10T04:20:43;97409.06;;;15.86;94.06
75513;BME280;64090;49.770;18.760;2023-06-10T04:23:47;97409.48;;;15.93;93.97
75513;BME280;64090;49.770;18.760;2023-06-10T04:26:51;97411.23;;;15.99;93.77
75513;BME280;64090;49.770;18.760;2023-06-10T04:29:54;97408.95;;;16.06;93.45
75513;BME280;64090;49.770;18.760;2023-06-10T04:32:57;97412.86;;;16.10;93.40
75513;BME280;64090;49.770;18.760;2023-06-10T04:36:01;97410.43;;;16.12;93.28
75513;BME280;64090;49.770;18.760;2023-06-10T04:39:04;97404.39;;;16.14;93.15
75513;BME280;64090;49.770;18.760;2023-06-10T04:42:08;97410.34;;;16.14;93.00
75513;BME280;64090;49.770;18.760;2023-06-10T04:45:11;97411.88;;;16.17;92.86
75513;BME280;64090;49.770;18.760;2023-06-10T04:48:15;97410.46;;;16.23;92.74
75513;BME280;64090;49.770;18.760;2023-06-10T04:51:19;97399.14;;;16.37;92.32
75513;BME280;64090;49.770;18.760;2023-06-10T04:54:21;97396.80;;;16.58;91.94
75513;BME280;64090;49.770;18.760;2023-06-10T04:57:24;97403.82;;;16.80;91.53
75513;BME280;64090;49.770;18.760;2023-06-10T05:00:32;97407.63;;;16.97;91.21
75513;BME280;64090;49.770;18.760;2023-06-10T05:03:35;97411.55;;;17.08;90.74
75513;BME280;64090;49.770;18.760;2023-06-10T05:06:38;97414.88;;;17.20;90.51
75513;BME280;64090;49.770;18.760;2023-06-10T05:09:42;97413.77;;;17.21;90.27
75513;BME280;64090;49.770;18.760;2023-06-10T05:12:45;97418.63;;;17.19;90.09
75513;BME280;64090;49.770;18.760;2023-06-10T05:15:48;97420.17;;;17.18;89.64
75513;BME280;64090;49.770;18.760;2023-06-10T05:18:51;97421.16;;;17.13;89.51
75513;BME280;64090;49.770;18.760;2023-06-10T05:21:54;97422.46;;;17.09;89.50
75513;BME280;64090;49.770;18.760;2023-06-10T05:24:58;97423.13;;;17.05;89.53
75513;BME280;64090;49.770;18.760;2023-06-10T05:28:00;97426.15;;;17.01;89.59
75513;BME280;64090;49.770;18.760;2023-06-10T05:31:03;97427.39;;;16.97;89.56
75513;BME280;64090;49.770;18.760;2023-06-10T05:34:08;97425.31;;;16.86;89.69
75513;BME280;64090;49.770;18.760;2023-06-10T05:37:12;97425.48;;;16.85;89.78
75513;BME280;64090;49.770;18.760;2023-06-10T05:40:15;97424.86;;;16.90;89.70
75513;BME280;64090;49.770;18.760;2023-06-10T05:43:18;97422.41;;;16.91;89.68
75513;BME280;64090;49.770;18.760;2023-06-10T05:46:21;97423.72;;;16.94;89.64
75513;BME280;64090;49.770;18.760;2023-06-10T05:49:24;97423.90;;;17.02;89.42
75513;BME280;64090;49.770;18.760;2023-06-10T05:52:27;97420.34;;;17.06;89.30
75513;BME280;64090;49.770;18.760;2023-06-10T05:55:30;97421.81;;;17.13;89.09
75513;BME280;64090;49.770;18.760;2023-06-10T05:58:33;97424.73;;;17.22;88.73
75513;BME280;64090;49.770;18.760;2023-06-10T06:01:36;97425.64;;;17.34;88.39
75513;BME280;64090;49.770;18.760;2023-06-10T06:04:39;97431.73;;;17.49;88.19
75513;BME280;64090;49.770;18.760;2023-06-10T06:07:42;97440.10;;;17.82;87.44
75513;BME280;64090;49.770;18.760;2023-06-10T06:10:45;97441.57;;;18.02;86.94
75513;BME280;64090;49.770;18.760;2023-06-10T06:13:48;97440.23;;;18.14;86.38
75513;BME280;64090;49.770;18.760;2023-06-10T06:16:55;97445.61;;;18.24;86.05
75513;BME280;64090;49.770;18.760;2023-06-10T06:19:58;97441.23;;;18.46;85.38
75513;BME280;64090;49.770;18.760;2023-06-10T06:23:02;97439.55;;;18.78;84.18
75513;BME280;64090;49.770;18.760;2023-06-10T06:26:05;97437.23;;;19.11;84.15
75513;BME280;64090;49.770;18.760;2023-06-10T06:29:10;97442.37;;;19.73;81.67
75513;BME280;64090;49.770;18.760;2023-06-10T06:32:13;97446.24;;;20.18;79.61
75513;BME280;64090;49.770;18.760;2023-06-10T06:35:16;97453.27;;;20.32;79.80
75513;BME280;64090;49.770;18.760;2023-06-10T06:38:19;97450.42;;;20.48;79.40
75513;BME280;64090;49.770;18.760;2023-06-10T06:41:22;97451.91;;;20.61;79.24
75513;BME280;64090;49.770;18.760;2023-06-10T06:44:24;97456.61;;;20.72;78.32
75513;BME280;64090;49.770;18.760;2023-06-10T06:47:27;97455.65;;;20.68;76.63
75513;BME280;64090;49.770;18.760;2023-06-10T06:50:31;97460.05;;;20.75;76.01
75513;BME280;64090;49.770;18.760;2023-06-10T06:53:34;97461.86;;;20.90;73.39
75513;BME280;64090;49.770;18.760;2023-06-10T06:56:38;97458.43;;;21.29;74.32
75513;BME280;64090;49.770;18.760;2023-06-10T06:59:41;97458.23;;;21.57;72.24
75513;BME280;64090;49.770;18.760;2023-06-10T07:02:44;97457.83;;;21.73;71.80
75513;BME280;64090;49.770;18.760;2023-06-10T07:05:47;97460.17;;;21.83;72.18
75513;BME280;64090;49.770;18.760;2023-06-10T07:08:49;97462.13;;;21.88;70.70
75513;BME280;64090;49.770;18.760;2023-06-10T07:11:53;97466.66;;;21.90;70.57
75513;BME280;64090;49.770;18.760;2023-06-10T07:14:56;97471.08;;;21.69;69.87
75513;BME280;64090;49.770;18.760;2023-06-10T07:17:59;97468.85;;;21.51;70.12
75513;BME280;64090;49.770;18.760;2023-06-10T07:21:02;97474.00;;;21.30;70.46
75513;BME280;64090;49.770;18.760;2023-06-10T07:24:06;97473.48;;;21.09;70.85
75513;BME280;64090;49.770;18.760;2023-06-10T07:27:09;97478.27;;;21.12;71.12
75513;BME280;64090;49.770;18.760;2023-06-10T07:30:14;97474.99;;;21.36;70.80
75513;BME280;64090;49.770;18.760;2023-06-10T07:33:18;97476.14;;;21.52;70.00
75513;BME280;64090;49.770;18.760;2023-06-10T07:36:22;97483.11;;;21.45;69.55
75513;BME280;64090;49.770;18.760;2023-06-10T07:39:26;97482.40;;;21.35;70.09
75513;BME280;64090;49.770;18.760;2023-06-10T07:42:30;97488.48;;;21.31;69.83
75513;BME280;64090;49.770;18.760;2023-06-10T07:45:33;97492.06;;;21.12;70.17
75513;BME280;64090;49.770;18.760;2023-06-10T07:48:36;97500.13;;;20.90;70.63
75513;BME280;64090;49.770;18.760;2023-06-10T07:51:39;97497.71;;;20.86;70.68
75513;BME280;64090;49.770;18.760;2023-06-10T07:54:43;97493.39;;;21.16;70.12
75513;BME280;64090;49.770;18.760;2023-06-10T07:57:45;97492.64;;;21.65;68.83
75513;BME280;64090;49.770;18.760;2023-06-10T08:00:48;97498.02;;;22.24;67.18
75513;BME280;64090;49.770;18.760;2023-06-10T08:03:51;97501.33;;;22.74;66.31
75513;BME280;64090;49.770;18.760;2023-06-10T08:06:54;97503.71;;;23.05;64.69
75513;BME280;64090;49.770;18.760;2023-06-10T08:09:59;97512.90;;;23.39;63.75
75513;BME280;64090;49.770;18.760;2023-06-10T08:13:02;97508.55;;;24.06;62.59
75513;BME280;64090;49.770;18.760;2023-06-10T08:16:05;97517.06;;;24.53;60.57
75513;BME280;64090;49.770;18.760;2023-06-10T08:19:08;97511.67;;;24.61;59.73
75513;BME280;64090;49.770;18.760;2023-06-10T08:22:12;97518.19;;;24.73;59.36
75513;BME280;64090;49.770;18.760;2023-06-10T08:25:15;97520.54;;;24.67;60.09
75513;BME280;64090;49.770;18.760;2023-06-10T08:28:18;97513.55;;;24.68;58.88
75513;BME280;64090;49.770;18.760;2023-06-10T08:31:21;97516.73;;;24.96;59.10
75513;BME280;64090;49.770;18.760;2023-06-10T08:34:24;97518.55;;;24.84;59.05
75513;BME280;64090;49.770;18.760;2023-06-10T08:37:27;97517.89;;;24.43;59.30
75513;BME280;64090;49.770;18.760;2023-06-10T08:40:30;97515.67;;;24.23;60.16
75513;BME280;64090;49.770;18.760;2023-06-10T08:43:44;97520.38;;;24.34;59.86
75513;BME280;64090;49.770;18.760;2023-06-10T08:46:49;97509.84;;;24.25;58.58
75513;BME280;64090;49.770;18.760;2023-06-10T08:49:57;97516.98;;;23.95;59.86
75513;BME280;64090;49.770;18.760;2023-06-10T08:53:07;97515.54;;;23.73;60.38
75513;BME280;64090;49.770;18.760;2023-06-10T08:56:15;97516.75;;;24.36;60.25
75513;BME280;64090;49.770;18.760;2023-06-10T08:59:21;97522.27;;;25.10;58.04
75513;BME280;64090;49.770;18.760;2023-06-10T09:02:26;97518.58;;;25.18;58.51
75513;BME280;64090;49.770;18.760;2023-06-10T09:05:33;97521.34;;;25.26;57.65
75513;BME280;64090;49.770;18.760;2023-06-10T09:08:36;97515.53;;;25.18;56.37
75513;BME280;64090;49.770;18.760;2023-06-10T09:11:42;97525.81;;;24.89;57.11
75513;BME280;64090;49.770;18.760;2023-06-10T09:15:01;97521.60;;;24.85;56.76
75513;BME280;64090;49.770;18.760;2023-06-10T09:18:07;97517.19;;;24.74;57.61
75513;BME280;64090;49.770;18.760;2023-06-10T09:21:10;97518.71;;;25.00;57.03
75513;BME280;64090;49.770;18.760;2023-06-10T09:24:16;97520.35;;;25.05;56.85
75513;BME280;64090;49.770;18.760;2023-06-10T09:27:19;97516.89;;;25.47;55.67
75513;BME280;64090;49.770;18.760;2023-06-10T09:30:33;97511.94;;;25.28;55.29
75513;BME280;64090;49.770;18.760;2023-06-10T09:33:39;97519.33;;;25.54;53.99
75513;BME280;64090;49.770;18.760;2023-06-10T09:36:42;97518.89;;;25.46;53.15
75513;BME280;64090;49.770;18.760;2023-06-10T09:40:07;97517.77;;;25.48;52.43
75513;BME280;64090;49.770;18.760;2023-06-10T09:43:17;97510.36;;;25.64;51.49
75513;BME280;64090;49.770;18.760;2023-06-10T09:46:20;97506.98;;;25.72;51.59
75513;BME280;64090;49.770;18.760;2023-06-10T09:49:23;97523.85;;;25.57;51.41
75513;BME280;64090;49.770;18.760;2023-06-10T09:52:28;97525.39;;;25.38;51.84
75513;BME280;64090;49.770;18.760;2023-06-10T09:55:33;97526.09;;;25.17;51.66
75513;BME280;64090;49.770;18.760;2023-06-10T09:58:39;97522.74;;;24.73;52.26
75513;BME280;64090;49.770;18.760;2023-06-10T10:01:54;97520.55;;;24.44;53.49
75513;BME280;64090;49.770;18.760;2023-06-10T10:05:05;97518.41;;;24.26;53.35
75513;BME280;64090;49.770;18.760;2023-06-10T10:08:11;97519.31;;;23.83;54.50
75513;BME280;64090;49.770;18.760;2023-06-10T10:11:19;97516.06;;;23.82;54.86
75513;BME280;64090;49.770;18.760;2023-06-10T10:14:25;97515.45;;;23.99;54.87
75513;BME280;64090;49.770;18.760;2023-06-10T10:17:29;97515.08;;;24.26;54.76
75513;BME280;64090;49.770;18.760;2023-06-10T10:20:34;97509.45;;;24.77;54.68
75513;BME280;64090;49.770;18.760;2023-06-10T10:23:51;97506.84;;;25.30;53.66
75513;BME280;64090;49.770;18.760;2023-06-10T10:26:59;97508.91;;;25.46;52.68
75513;BME280;64090;49.770;18.760;2023-06-10T10:30:04;97503.00;;;25.62;51.41
75513;BME280;64090;49.770;18.760;2023-06-10T10:33:18;97501.02;;;25.71;50.86
75513;BME280;64090;49.770;18.760;2023-06-10T10:36:27;97489.64;;;25.69;51.84
75513;BME280;64090;49.770;18.760;2023-06-10T10:39:38;97490.97;;;25.35;52.10
75513;BME280;64090;49.770;18.760;2023-06-10T10:42:41;97482.33;;;25.18;52.08
75513;BME280;64090;49.770;18.760;2023-06-10T10:46:01;97484.29;;;25.24;52.88
75513;BME280;64090;49.770;18.760;2023-06-10T10:49:08;97487.05;;;25.57;51.18
75513;BME280;64090;49.770;18.760;2023-06-10T10:52:13;97480.10;;;25.60;51.30
75513;BME280;64090;49.770;18.760;2023-06-10T10:55:16;97477.79;;;25.82;50.79
75513;BME280;64090;49.770;18.760;2023-06-10T10:58:24;97481.32;;;25.93;50.78
75513;BME280;64090;49.770;18.760;2023-06-10T11:01:39;97471.06;;;25.83;49.54
75513;BME280;64090;49.770;18.760;2023-06-10T11:04:47;97471.78;;;25.64;50.36
75513;BME280;64090;49.770;18.760;2023-06-10T11:07:55;97472.48;;;25.92;49.42
75513;BME280;64090;49.770;18.760;2023-06-10T11:11:27;97481.83;;;25.93;49.04
75513;BME280;64090;49.770;18.760;2023-06-10T11:14:35;97478.20;;;26.32;47.82
75513;BME280;64090;49.770;18.760;2023-06-10T11:21:13;97478.66;;;27.53;46.70
75513;BME280;64090;49.770;18.760;2023-06-10T11:24:19;97478.44;;;27.89;45.77
75513;BME280;64090;49.770;18.760;2023-06-10T11:27:23;97475.55;;;27.98;44.82
75513;BME280;64090;49.770;18.760;2023-06-10T11:30:34;97479.61;;;27.96;44.12
75513;BME280;64090;49.770;18.760;2023-06-10T11:33:38;97478.50;;;27.95;44.09
75513;BME280;64090;49.770;18.760;2023-06-10T11:36:43;97467.05;;;27.93;43.78
75513;BME280;64090;49.770;18.760;2023-06-10T11:39:53;97460.00;;;28.16;44.72
75513;BME280;64090;49.770;18.760;2023-06-10T11:42:57;97470.73;;;28.43;43.97
75513;BME280;64090;49.770;18.760;2023-06-10T11:46:03;97457.40;;;28.52;43.13
75513;BME280;64090;49.770;18.760;2023-06-10T11:49:06;97464.64;;;28.82;43.06
75513;BME280;64090;49.770;18.760;2023-06-10T11:52:09;97456.27;;;28.56;42.74
75513;BME280;64090;49.770;18.760;2023-06-10T11:55:13;97452.16;;;27.97;43.64
75513;BME280;64090;49.770;18.760;2023-06-10T11:58:21;97460.47;;;27.41;45.27
75513;BME280;64090;49.770;18.760;2023-06-10T12:01:26;97457.55;;;26.74;46.70
75513;BME280;64090;49.770;18.760;2023-06-10T12:04:32;97465.63;;;25.88;48.68
75513;BME280;64090;49.770;18.760;2023-06-10T12:07:35;97480.33;;;24.97;51.36
75513;BME280;64090;49.770;18.760;2023-06-10T12:10:42;97489.17;;;23.93;55.26
75513;BME280;64090;49.770;18.760;2023-06-10T12:13:47;97487.76;;;22.87;59.35
75513;BME280;64090;49.770;18.760;2023-06-10T12:17:02;97489.59;;;22.00;62.48
75513;BME280;64090;49.770;18.760;2023-06-10T12:20:08;97491.69;;;21.55;65.33
75513;BME280;64090;49.770;18.760;2023-06-10T12:23:13;97482.77;;;21.38;66.13
75513;BME280;64090;49.770;18.760;2023-06-10T12:26:17;97486.06;;;21.51;66.32
75513;BME280;64090;49.770;18.760;2023-06-10T12:29:24;97492.63;;;21.73;66.01
75513;BME280;64090;49.770;18.760;2023-06-10T12:32:43;97505.71;;;22.14;65.09
75513;BME280;64090;49.770;18.760;2023-06-10T12:35:49;97515.20;;;22.56;63.75
75513;BME280;64090;49.770;18.760;2023-06-10T12:39:21;97521.72;;;22.82;62.52
75513;BME280;64090;49.770;18.760;2023-06-10T12:42:25;97506.12;;;22.89;60.88
75513;BME280;64090;49.770;18.760;2023-06-10T12:45:32;97507.29;;;23.02;60.87
75513;BME280;64090;49.770;18.760;2023-06-10T12:48:56;97512.27;;;22.96;60.90
75513;BME280;64090;49.770;18.760;2023-06-10T12:52:20;97520.67;;;22.65;61.46
75513;BME280;64090;49.770;18.760;2023-06-10T12:55:23;97512.89;;;22.17;62.71
75513;BME280;64090;49.770;18.760;2023-06-10T12:58:27;97512.63;;;21.55;65.39
75513;BME280;64090;49.770;18.760;2023-06-10T13:01:32;97518.03;;;20.99;67.23
75513;BME280;64090;49.770;18.760;2023-06-10T13:04:36;97513.37;;;20.60;69.05
75513;BME280;64090;49.770;18.760;2023-06-10T13:07:40;97511.45;;;20.25;70.42
75513;BME280;64090;49.770;18.760;2023-06-10T13:10:44;97507.77;;;19.95;71.75
75513;BME280;64090;49.770;18.760;2023-06-10T13:13:47;97503.62;;;19.72;73.17
75513;BME280;64090;49.770;18.760;2023-06-10T13:16:52;97501.52;;;19.45;74.90
75513;BME280;64090;49.770;18.760;2023-06-10T13:20:27;97502.65;;;19.28;75.33
75513;BME280;64090;49.770;18.760;2023-06-10T13:23:35;97504.95;;;19.18;75.95
75513;BME280;64090;49.770;18.760;2023-06-10T13:27:03;97499.02;;;19.15;76.64
75513;BME280;64090;49.770;18.760;2023-06-10T13:30:24;97486.63;;;19.20;76.71
75513;BME280;64090;49.770;18.760;2023-06-10T13:33:28;97493.38;;;19.30;77.20
75513;BME280;64090;49.770;18.760;2023-06-10T13:36:32;97490.16;;;19.40;76.97
75513;BME280;64090;49.770;18.760;2023-06-10T13:39:55;97489.83;;;19.48;77.59
75513;BME280;64090;49.770;18.760;2023-06-10T13:43:02;97491.89;;;19.62;77.18
75513;BME280;64090;49.770;18.760;2023-06-10T13:50:04;97498.13;;;20.19;75.80
75513;BME280;64090;49.770;18.760;2023-06-10T13:53:20;97499.19;;;20.51;74.80
75513;BME280;64090;49.770;18.760;2023-06-10T13:56:23;97498.27;;;20.81;74.07
75513;BME280;64090;49.770;18.760;2023-06-10T13:59:26;97496.46;;;21.08;73.46
75513;BME280;64090;49.770;18.760;2023-06-10T14:02:29;97495.30;;;21.41;72.81
75513;BME280;64090;49.770;18.760;2023-06-10T14:05:34;97492.21;;;21.66;72.18
75513;BME280;64090;49.770;18.760;2023-06-10T14:08:38;97494.14;;;21.88;71.67
75513;BME280;64090;49.770;18.760;2023-06-10T14:11:44;97497.03;;;22.15;71.41
75513;BME280;64090;49.770;18.760;2023-06-10T14:14:47;97493.86;;;22.49;70.43
75513;BME280;64090;49.770;18.760;2023-06-10T14:17:51;97487.82;;;22.58;68.94
75513;BME280;64090;49.770;18.760;2023-06-10T14:20:57;97492.57;;;22.63;68.71
75513;BME280;64090;49.770;18.760;2023-06-10T14:24:00;97484.04;;;22.64;67.46
75513;BME280;64090;49.770;18.760;2023-06-10T14:27:07;97480.98;;;22.66;66.32
75513;BME280;64090;49.770;18.760;2023-06-10T14:30:10;97470.08;;;22.63;64.58
75513;BME280;64090;49.770;18.760;2023-06-10T14:33:13;97467.67;;;22.81;65.71
75513;BME280;64090;49.770;18.760;2023-06-10T14:36:17;97464.35;;;22.87;63.42
75513;BME280;64090;49.770;18.760;2023-06-10T14:39:20;97460.41;;;23.02;63.45
75513;BME280;64090;49.770;18.760;2023-06-10T14:42:23;97469.53;;;23.29;62.46
75513;BME280;64090;49.770;18.760;2023-06-10T14:45:27;97464.95;;;23.48;60.72
75513;BME280;64090;49.770;18.760;2023-06-10T14:48:30;97466.67;;;23.77;60.71
75513;BME280;64090;49.770;18.760;2023-06-10T14:51:33;97460.51;;;23.82;57.76
75513;BME280;64090;49.770;18.760;2023-06-10T14:54:45;97467.61;;;23.76;57.87
75513;BME280;64090;49.770;18.760;2023-06-10T14:57:48;97473.19;;;24.02;57.90
75513;BME280;64090;49.770;18.760;2023-06-10T15:00:52;97473.84;;;24.23;57.29
75513;BME280;64090;49.770;18.760;2023-06-10T15:03:55;97475.50;;;24.36;56.50
75513;BME280;64090;49.770;18.760;2023-06-10T15:06:58;97480.84;;;24.27;56.40
75513;BME280;64090;49.770;18.760;2023-06-10T15:10:01;97481.05;;;24.24;55.59
75513;BME280;64090;49.770;18.760;2023-06-10T15:13:04;97475.80;;;24.08;55.70
75513;BME280;64090;49.770;18.760;2023-06-10T15:16:07;97474.70;;;24.06;55.58
75513;BME280;64090;49.770;18.760;2023-06-10T15:19:10;97477.11;;;24.08;55.01
75513;BME280;64090;49.770;18.760;2023-06-10T15:22:15;97471.47;;;24.05;55.30
75513;BME280;64090;49.770;18.760;2023-06-10T15:25:17;97472.85;;;24.12;54.79
75513;BME280;64090;49.770;18.760;2023-06-10T15:28:33;97476.31;;;24.13;54.41
75513;BME280;64090;49.770;18.760;2023-06-10T15:31:36;97476.20;;;24.39;54.27
75513;BME280;64090;49.770;18.760;2023-06-10T15:34:41;97473.63;;;24.53;53.56
75513;BME280;64090;49.770;18.760;2023-06-10T15:37:44;97474.48;;;24.45;53.26
75513;BME280;64090;49.770;18.760;2023-06-10T15:40:47;97472.63;;;24.56;52.50
75513;BME280;64090;49.770;18.760;2023-06-10T15:43:51;97476.49;;;24.50;53.01
75513;BME280;64090;49.770;18.760;2023-06-10T15:46:54;97480.34;;;24.59;52.18
75513;BME280;64090;49.770;18.760;2023-06-10T15:49:57;97481.92;;;24.78;51.52
75513;BME280;64090;49.770;18.760;2023-06-10T15:53:01;97483.05;;;24.73;51.20
75513;BME280;64090;49.770;18.760;2023-06-10T15:56:03;97482.51;;;24.46;51.87
75513;BME280;64090;49.770;18.760;2023-06-10T15:59:06;97477.76;;;24.09;52.51
75513;BME280;64090;49.770;18.760;2023-06-10T16:02:14;97472.10;;;23.76;53.64
75513;BME280;64090;49.770;18.760;2023-06-10T16:05:17;97478.75;;;23.58;54.59
75513;BME280;64090;49.770;18.760;2023-06-10T16:08:20;97482.10;;;23.77;53.97
75513;BME280;64090;49.770;18.760;2023-06-10T16:11:24;97478.00;;;23.71;54.10
75513;BME280;64090;49.770;18.760;2023-06-10T16:14:31;97481.96;;;23.70;53.67
75513;BME280;64090;49.770;18.760;2023-06-10T16:17:34;97496.54;;;23.73;53.47
75513;BME280;64090;49.770;18.760;2023-06-10T16:20:37;97489.38;;;23.65;53.58